TTPP/POS METAR and TAF weather

Enter ICAO airport designator
Station Type Date Time Source
TTPP METAR 2019/05/20 10:00 UTC NOAA

TTPP 201000Z 00000KT 9999 VCSH FEW008 24/23 Q1012 NOSIG RMK VCSH- SE NE


Station Type Date Time Source
TTPP Decoded METAR 2019/05/20 10:00 UTC NOAA

Piarco International Airport, Trinidad, Trinidad and Tobago (TTPP) 10-37N 061-21W 15M
May 20, 2019 - 06:00 AM EDT / 2019.05.20 1000 UTC
Wind: Calm:0
Visibility: greater than 7 mile(s):0
Sky conditions: mostly clear
Weather: showers in the vicinity
Temperature: 75 F (24 C)
Dew Point: 73 F (23 C)
Relative Humidity: 94%
Pressure (altimeter): 29.88 in. Hg (1012 hPa)
ob: TTPP 201000Z 00000KT 9999 VCSH FEW008 24/23 Q1012 NOSIG RMK VCSH- SE NE
cycle: 10

Station Type Date Time Source
TTPP TAF 2019/05/20 12:25 UTC NOAA

TAF TTPP 201000Z 2012/2112 10015KT 9999 SCT020
BECMG 2100/2102 10005KT FEW016

Example: see airport list